Time;durP1;ratioP1;P1;durP2;ratioP2;P2;SDS_P1;SDS_P2;PMS_P1;PMS_P2;Temp;Humidity;BMP_temperature;BMP_pressure;BME280_temperature;BME280_humidity;BME280_pressure;Samples;Min_cycle;Max_cycle;Signal;HPM_P1;HPM_P2
2021/08/01 00:01:45;;;;;;;7.80;5.72;;;;;;;25.35;79.12;100421.19;1723635;81;21014;-57
2021/08/01 00:04:12;;;;;;;13.22;6.37;;;;;;;25.35;79.18;100423.06;1729676;81;21052;-58
2021/08/01 00:06:39;;;;;;;7.35;5.80;;;;;;;25.36;79.36;100417.92;1724614;81;21063;-58
2021/08/01 00:09:07;;;;;;;7.60;6.10;;;;;;;25.38;79.28;100415.38;1713343;81;21497;-58
2021/08/01 00:11:34;;;;;;;9.30;5.87;;;;;;;25.39;79.28;100410.74;1724361;81;21836;-58
2021/08/01 00:14:01;;;;;;;8.78;5.62;;;;;;;25.37;79.38;100415.03;1724749;81;21082;-54
2021/08/01 00:16:28;;;;;;;8.30;6.28;;;;;;;25.38;79.54;100412.64;1726271;81;21447;-53
2021/08/01 00:19:04;;;;;;;9.85;6.50;;;;;;;25.41;79.38;100406.83;1719728;81;21492;-53
2021/08/01 00:21:31;;;;;;;8.08;6.20;;;;;;;25.44;79.25;100407.88;1728041;81;21049;-54
2021/08/01 00:23:58;;;;;;;8.28;5.92;;;;;;;25.45;79.06;100424.69;1732354;81;21137;-58
2021/08/01 00:26:25;;;;;;;9.35;6.17;;;;;;;25.42;78.94;100427.76;1725897;80;21650;-59
2021/08/01 00:28:52;;;;;;;11.38;6.20;;;;;;;25.35;79.10;100433.54;1720970;81;21082;-59
2021/08/01 00:31:19;;;;;;;9.00;6.70;;;;;;;25.27;79.42;100428.84;1722227;81;21094;-58
2021/08/01 00:33:46;;;;;;;11.75;6.40;;;;;;;25.23;79.94;100434.79;1723196;81;21011;-58
2021/08/01 00:36:13;;;;;;;9.70;6.05;;;;;;;25.20;80.35;100432.37;1718685;81;21118;-58
2021/08/01 00:38:42;;;;;;;8.50;6.10;;;;;;;25.23;80.52;100431.55;1717171;81;21408;-58
2021/08/01 00:41:10;;;;;;;6.55;5.80;;;;;;;25.24;80.58;100432.39;1721353;81;21059;-58
2021/08/01 00:43:39;;;;;;;9.43;6.60;;;;;;;25.22;80.73;100428.95;1717715;81;21043;-58
2021/08/01 00:46:06;;;;;;;11.68;5.97;;;;;;;25.22;81.00;100424.34;1712205;82;21120;-57
2021/08/01 00:48:34;;;;;;;9.20;6.65;;;;;;;25.23;81.11;100416.95;1721230;81;21808;-58
2021/08/01 00:51:02;;;;;;;9.13;6.35;;;;;;;25.26;81.22;100412.52;1667351;84;21097;-58
2021/08/01 00:53:29;;;;;;;9.38;7.03;;;;;;;25.25;81.22;100409.43;1702167;82;21059;-54
2021/08/01 00:55:57;;;;;;;20.12;7.40;;;;;;;25.19;81.92;100406.80;1720936;82;21016;-54
2021/08/01 00:58:25;;;;;;;9.98;7.00;;;;;;;25.18;82.62;100405.95;1717419;82;21058;-53
2021/08/01 01:01:07;;;;;;;12.03;6.83;;;;;;;25.18;83.34;100400.47;1718418;81;21013;-53
2021/08/01 01:03:58;;;;;;;9.38;6.80;;;;;;;25.20;84.00;100403.56;1720277;81;21127;-52
2021/08/01 01:06:37;;;;;;;12.45;7.33;;;;;;;25.22;85.10;100404.27;1725386;81;21113;-53
2021/08/01 01:09:10;;;;;;;8.65;6.22;;;;;;;25.20;86.01;100403.56;1722040;81;21018;-53
2021/08/01 01:12:07;;;;;;;8.03;6.33;;;;;;;25.15;86.87;100409.52;1706116;81;21117;-53
2021/08/01 01:14:38;;;;;;;9.23;6.20;;;;;;;25.15;87.67;100419.98;1727587;81;21774;-53
2021/08/01 01:17:05;;;;;;;9.50;6.90;;;;;;;25.17;88.56;100422.06;1724672;81;21055;-53
2021/08/01 01:19:47;;;;;;;9.55;6.85;;;;;;;25.21;89.11;100416.26;1724577;81;21165;-53
2021/08/01 01:22:35;;;;;;;8.25;6.47;;;;;;;25.21;89.39;100413.52;1709906;81;21491;-54
2021/08/01 01:25:23;;;;;;;8.35;7.12;;;;;;;25.13;89.87;100412.44;1686546;81;21098;-54
2021/08/01 01:27:56;;;;;;;8.90;6.93;;;;;;;25.10;90.50;100412.75;1723379;81;21108;-53
2021/08/01 01:30:25;;;;;;;11.90;6.97;;;;;;;25.04;90.71;100410.62;1722288;81;21520;-55
2021/08/01 01:32:58;;;;;;;15.80;7.03;;;;;;;25.01;91.29;100412.30;1720835;81;21540;-53
2021/08/01 01:35:25;;;;;;;9.10;7.40;;;;;;;25.03;91.58;100419.37;1730418;81;21074;-53
2021/08/01 01:37:52;;;;;;;9.45;6.90;;;;;;;25.07;91.84;100423.16;1732879;81;21157;-53
2021/08/01 01:40:22;;;;;;;10.45;6.97;;;;;;;25.10;91.79;100426.47;1721498;81;21799;-53
2021/08/01 01:42:54;;;;;;;11.28;6.33;;;;;;;25.11;91.36;100421.83;1723612;81;21062;-55
2021/08/01 01:45:24;;;;;;;9.30;7.15;;;;;;;25.06;91.27;100427.77;1724839;81;21046;-55
2021/08/01 01:47:52;;;;;;;8.85;7.05;;;;;;;25.00;91.41;100425.66;1732504;81;21561;-55
2021/08/01 01:53:17;;;;;;;9.90;6.90;;;;;;;24.96;92.01;100428.38;1716294;82;21549;-53
2021/08/01 01:55:45;;;;;;;7.80;6.90;;;;;;;24.92;92.31;100430.55;1723973;81;21077;-53
2021/08/01 01:58:12;;;;;;;11.75;6.47;;;;;;;24.92;92.54;100438.78;1723744;82;21499;-52
2021/08/01 02:00:41;;;;;;;8.35;6.37;;;;;;;24.89;92.72;100438.59;1716534;81;21463;-55
2021/08/01 02:03:09;;;;;;;9.58;7.10;;;;;;;24.93;93.02;100438.28;1705034;81;21681;-52
2021/08/01 02:05:46;;;;;;;9.43;6.53;;;;;;;24.98;93.02;100444.16;1721867;81;21138;-55
2021/08/01 02:08:53;;;;;;;10.40;6.85;;;;;;;25.05;92.77;100432.06;1725304;81;21046;-53
2021/08/01 02:11:48;;;;;;;10.68;6.83;;;;;;;25.09;91.99;100430.23;1712041;81;21048;-53
2021/08/01 02:14:30;;;;;;;8.03;6.65;;;;;;;25.10;91.61;100429.21;1725944;81;21460;-54
2021/08/01 02:17:06;;;;;;;8.03;6.45;;;;;;;25.10;90.83;100437.44;1718751;81;21118;-53
2021/08/01 02:19:35;;;;;;;10.32;6.30;;;;;;;25.03;90.68;100431.70;1725426;81;21103;-53
2021/08/01 02:22:04;;;;;;;11.00;5.80;;;;;;;25.02;90.90;100438.70;1718201;81;21039;-53
2021/08/01 02:24:31;;;;;;;8.75;6.17;;;;;;;25.09;90.78;100440.32;1722220;81;21479;-54
2021/08/01 02:27:17;;;;;;;14.45;6.60;;;;;;;25.17;90.41;100449.49;1744542;80;21130;-53
2021/08/01 02:29:45;;;;;;;8.83;6.37;;;;;;;25.18;89.93;100442.98;1740102;80;21115;-53
2021/08/01 02:32:12;;;;;;;9.00;6.40;;;;;;;25.22;89.91;100446.78;1744408;80;21782;-53
2021/08/01 02:34:40;;;;;;;8.43;6.97;;;;;;;25.26;89.62;100453.67;1743209;80;21067;-53
2021/08/01 02:37:07;;;;;;;9.88;7.08;;;;;;;25.26;89.59;100453.17;1739065;80;20964;-53
2021/08/01 02:39:35;;;;;;;9.60;6.62;;;;;;;25.29;89.52;100451.98;1714891;82;21094;-57
2021/08/01 02:42:05;;;;;;;8.68;7.05;;;;;;;25.28;89.22;100447.52;1743722;80;21031;-53
2021/08/01 02:44:35;;;;;;;10.50;6.58;;;;;;;25.24;89.10;100451.59;1744447;80;21540;-53
2021/08/01 02:47:05;;;;;;;8.88;6.55;;;;;;;25.19;89.67;100449.31;1746204;80;22139;-54
2021/08/01 02:49:37;;;;;;;11.83;7.10;;;;;;;25.16;90.37;100445.03;1705434;82;21100;-54
2021/08/01 02:52:06;;;;;;;14.10;7.83;;;;;;;25.16;90.76;100457.37;1748495;80;21139;-54
2021/08/01 02:54:33;;;;;;;11.78;6.92;;;;;;;25.18;91.14;100447.10;1751134;79;21594;-54
2021/08/01 02:57:03;;;;;;;9.95;6.87;;;;;;;25.22;91.72;100454.52;1732033;80;21155;-53
2021/08/01 02:59:31;;;;;;;12.95;7.00;;;;;;;25.28;92.30;100453.00;1741500;80;21087;-54
2021/08/01 03:01:58;;;;;;;9.40;6.90;;;;;;;25.36;92.96;100450.35;1690289;82;21478;-58
2021/08/01 03:04:27;;;;;;;13.00;6.97;;;;;;;25.40;93.27;100451.75;1729168;81;21039;-57
2021/08/01 03:06:57;;;;;;;11.45;6.75;;;;;;;25.41;93.88;100449.36;1736887;80;20967;-53
2021/08/01 03:09:25;;;;;;;9.20;6.47;;;;;;;25.43;93.83;100453.33;1717615;80;21553;-53
2021/08/01 03:11:52;;;;;;;9.95;6.67;;;;;;;25.44;94.17;100453.16;1723024;81;21071;-52
2021/08/01 03:14:19;;;;;;;11.12;7.15;;;;;;;25.51;94.61;100453.42;1733918;81;21057;-52
2021/08/01 03:16:47;;;;;;;12.68;7.00;;;;;;;25.58;94.67;100446.78;1718290;81;21577;-52
2021/08/01 03:19:14;;;;;;;10.78;6.72;;;;;;;25.64;95.04;100445.27;1718337;81;21642;-53
2021/08/01 03:21:43;;;;;;;8.35;6.70;;;;;;;25.68;95.44;100435.19;1714359;81;21174;-59
2021/08/01 03:24:12;;;;;;;8.35;6.80;;;;;;;25.73;96.02;100435.55;1709176;81;21020;-59
2021/08/01 03:26:46;;;;;;;10.32;6.90;;;;;;;25.80;96.41;100434.93;1715317;80;21420;-56
2021/08/01 03:29:14;;;;;;;8.40;6.90;;;;;;;25.85;96.69;100432.55;1710755;81;21034;-57
2021/08/01 03:31:41;;;;;;;15.18;6.70;;;;;;;25.91;96.94;100427.78;1713019;82;21081;-57
2021/08/01 03:34:09;;;;;;;10.58;6.20;;;;;;;25.96;97.04;100435.02;1689704;83;21109;-59
2021/08/01 03:36:36;;;;;;;8.08;6.30;;;;;;;26.01;97.02;100431.29;1706773;82;21026;-57
2021/08/01 03:39:08;;;;;;;10.23;6.62;;;;;;;26.08;97.25;100429.25;1686529;81;21065;-57
2021/08/01 03:41:39;;;;;;;7.25;6.35;;;;;;;26.14;97.33;100431.34;1721823;81;21006;-57
2021/08/01 03:44:08;;;;;;;10.25;6.45;;;;;;;26.21;97.34;100431.58;1746921;80;21066;-57
2021/08/01 03:46:35;;;;;;;8.10;6.55;;;;;;;26.27;97.09;100431.79;1761599;80;21135;-56
2021/08/01 03:49:03;;;;;;;11.20;6.12;;;;;;;26.37;96.71;100434.91;1776549;79;21005;-59
2021/08/01 03:51:30;;;;;;;7.42;6.55;;;;;;;26.47;96.30;100434.28;1764120;79;21238;-57
2021/08/01 03:53:57;;;;;;;12.73;6.70;;;;;;;26.55;96.14;100435.67;1771991;79;21042;-57
2021/08/01 03:56:24;;;;;;;7.75;6.75;;;;;;;26.64;96.10;100432.44;1781948;79;21024;-56
2021/08/01 03:58:51;;;;;;;7.95;6.25;;;;;;;26.74;95.94;100435.05;1768186;79;22107;-57
2021/08/01 04:01:19;;;;;;;8.30;6.12;;;;;;;26.84;95.75;100438.48;1771481;79;20997;-59
2021/08/01 04:03:46;;;;;;;10.10;6.33;;;;;;;26.93;95.41;100433.06;1776802;79;21596;-57
2021/08/01 04:06:31;;;;;;;10.18;6.60;;;;;;;27.04;94.98;100446.47;1735358;80;21027;-59
2021/08/01 04:08:58;;;;;;;8.78;6.50;;;;;;;27.12;94.43;100435.50;1705614;82;21132;-57
2021/08/01 04:11:25;;;;;;;8.20;6.12;;;;;;;27.23;93.97;100442.56;1739520;80;21118;-57
2021/08/01 04:13:54;;;;;;;7.60;5.92;;;;;;;27.36;93.34;100444.80;1733431;80;21020;-57
2021/08/01 04:16:21;;;;;;;9.50;6.35;;;;;;;27.48;92.75;100449.94;1741964;80;21106;-57
2021/08/01 04:18:48;;;;;;;6.85;6.12;;;;;;;27.59;91.88;100450.48;1732099;80;21043;-58
2021/08/01 04:21:15;;;;;;;9.03;5.58;;;;;;;27.72;90.94;100448.57;1736823;80;21038;-57
2021/08/01 04:23:43;;;;;;;7.80;5.97;;;;;;;27.85;89.96;100447.19;1730958;80;21661;-58
2021/08/01 04:26:10;;;;;;;8.23;5.97;;;;;;;27.96;88.75;100450.94;1715083;82;21471;-57
2021/08/01 04:28:37;;;;;;;8.95;5.78;;;;;;;28.10;87.52;100454.89;1686031;83;21155;-58
2021/08/01 04:31:05;;;;;;;6.33;5.50;;;;;;;28.20;86.71;100451.97;1689295;83;21069;-57
2021/08/01 04:33:34;;;;;;;9.60;5.97;;;;;;;28.33;85.85;100456.05;1686803;83;21017;-57
2021/08/01 04:36:01;;;;;;;8.35;5.20;;;;;;;28.44;84.88;100457.05;1649994;83;21147;-58
2021/08/01 04:38:28;;;;;;;11.73;5.58;;;;;;;28.56;84.31;100462.48;1700036;83;21441;-58
2021/08/01 04:40:54;;;;;;;7.20;5.90;;;;;;;28.69;83.53;100461.06;1686527;83;21427;-58
2021/08/01 04:43:22;;;;;;;8.25;5.87;;;;;;;28.80;82.65;100460.67;1685827;83;21033;-58
2021/08/01 04:45:49;;;;;;;8.63;5.45;;;;;;;28.91;81.78;100464.08;1749133;80;21002;-57
2021/08/01 04:48:16;;;;;;;7.30;5.33;;;;;;;29.01;81.22;100464.69;1741494;80;21411;-58
2021/08/01 04:50:44;;;;;;;7.12;5.10;;;;;;;29.12;80.66;100461.52;1747480;80;21060;-58
2021/08/01 04:53:11;;;;;;;8.20;5.45;;;;;;;29.22;80.02;100457.14;1738511;80;21470;-57
2021/08/01 04:55:38;;;;;;;7.55;5.62;;;;;;;29.34;79.60;100467.23;1746193;80;21534;-57
2021/08/01 04:58:06;;;;;;;6.92;5.12;;;;;;;29.45;79.02;100465.97;1744764;80;21035;-53
2021/08/01 05:00:32;;;;;;;7.37;5.15;;;;;;;29.56;78.61;100468.81;1741984;80;21076;-52
2021/08/01 05:03:01;;;;;;;8.08;5.47;;;;;;;29.64;78.36;100467.34;1738761;80;21359;-54
2021/08/01 05:05:28;;;;;;;9.78;5.85;;;;;;;29.73;77.94;100477.30;1741675;80;21047;-54
2021/08/01 05:07:55;;;;;;;7.47;5.62;;;;;;;29.83;77.87;100479.75;1743430;80;21490;-58
2021/08/01 05:10:22;;;;;;;8.80;5.47;;;;;;;29.94;77.70;100482.59;1701029;82;21697;-58
2021/08/01 05:12:49;;;;;;;7.58;5.17;;;;;;;30.07;77.16;100488.03;1676888;83;21540;-57
2021/08/01 05:15:17;;;;;;;8.83;5.08;;;;;;;30.15;76.58;100489.31;1721504;82;20987;-57
2021/08/01 05:17:44;;;;;;;7.75;5.50;;;;;;;30.25;76.08;100484.37;1678007;83;21553;-57
2021/08/01 05:20:14;;;;;;;9.90;5.55;;;;;;;30.34;75.60;100487.03;1705881;82;21004;-58
2021/08/01 05:22:41;;;;;;;8.53;5.42;;;;;;;30.41;74.75;100486.09;1708503;82;20933;-54
2021/08/01 05:25:09;;;;;;;8.35;4.72;;;;;;;30.45;73.97;100490.72;1704991;82;21777;-53
2021/08/01 05:27:36;;;;;;;5.75;5.15;;;;;;;30.48;73.56;100497.24;1729027;80;20961;-53
2021/08/01 05:30:04;;;;;;;5.95;5.37;;;;;;;30.55;73.26;100494.03;1743597;80;21120;-53
2021/08/01 05:32:34;;;;;;;8.00;5.80;;;;;;;30.58;72.83;100495.03;1703575;82;21059;-54
2021/08/01 05:35:02;;;;;;;10.50;6.00;;;;;;;30.56;72.77;100495.75;1736366;80;21392;-54
2021/08/01 05:37:30;;;;;;;6.25;5.53;;;;;;;30.61;72.56;100491.54;1743994;80;21141;-54
2021/08/01 05:39:57;;;;;;;7.25;5.90;;;;;;;30.64;72.07;100489.83;1745270;80;21027;-54
2021/08/01 05:42:28;;;;;;;5.60;5.08;;;;;;;30.63;71.47;100478.44;1743002;80;21481;-53
2021/08/01 05:44:55;;;;;;;6.95;5.50;;;;;;;30.69;71.54;100481.80;1722378;81;21073;-53
2021/08/01 05:47:22;;;;;;;6.35;5.50;;;;;;;30.81;71.72;100476.08;1728742;81;21058;-53
2021/08/01 05:49:50;;;;;;;7.65;5.28;;;;;;;30.96;70.86;100477.97;1746288;81;21064;-53
2021/08/01 05:52:17;;;;;;;6.75;5.37;;;;;;;31.05;69.15;100480.93;1745558;81;22464;-53
2021/08/01 05:54:44;;;;;;;6.55;5.60;;;;;;;31.12;68.62;100483.27;1730477;81;21038;-53
2021/08/01 05:57:13;;;;;;;10.93;5.40;;;;;;;31.21;68.56;100485.92;1731209;81;20998;-53
2021/08/01 05:59:42;;;;;;;6.22;5.00;;;;;;;31.28;68.31;100482.69;1739810;81;21032;-53
2021/08/01 06:02:13;;;;;;;6.33;5.00;;;;;;;31.36;68.19;100489.50;1732040;81;21047;-53
2021/08/01 06:04:40;;;;;;;9.60;5.35;;;;;;;31.46;67.70;100496.61;1733363;81;21057;-54
2021/08/01 06:07:08;;;;;;;10.38;5.25;;;;;;;31.53;67.24;100500.32;1738498;81;21461;-54
2021/08/01 06:09:39;;;;;;;10.38;5.20;;;;;;;31.54;66.71;100503.42;1732321;81;21555;-54
2021/08/01 06:12:10;;;;;;;5.40;4.80;;;;;;;31.61;65.81;100497.41;1734818;81;21487;-54
2021/08/01 06:14:37;;;;;;;8.80;5.35;;;;;;;31.70;64.69;100500.89;1726991;81;21486;-54
2021/08/01 06:17:04;;;;;;;7.97;5.28;;;;;;;31.79;64.20;100507.18;1744288;81;21038;-54
2021/08/01 06:19:31;;;;;;;8.78;5.35;;;;;;;31.85;63.45;100511.91;1734084;81;21034;-54
2021/08/01 06:21:58;;;;;;;10.43;5.10;;;;;;;31.88;62.79;100510.12;1743839;81;21107;-53
2021/08/01 06:24:25;;;;;;;10.93;5.30;;;;;;;31.96;61.87;100505.84;1742879;81;21096;-52
2021/08/01 06:26:52;;;;;;;7.90;4.83;;;;;;;32.00;61.13;100512.69;1744502;81;21590;-53
2021/08/01 06:29:19;;;;;;;10.23;5.47;;;;;;;32.04;60.77;100508.12;1742108;81;21495;-52
2021/08/01 06:31:47;;;;;;;5.47;4.42;;;;;;;32.05;61.17;100511.21;1745697;81;21066;-55
2021/08/01 06:34:13;;;;;;;8.58;4.67;;;;;;;32.06;60.84;100508.25;1741607;81;21063;-53
2021/08/01 06:36:40;;;;;;;9.15;5.10;;;;;;;32.09;60.58;100511.13;1739236;81;20947;-57
2021/08/01 06:39:12;;;;;;;7.62;4.80;;;;;;;32.11;60.52;100514.04;1736714;81;21561;-57
2021/08/01 06:41:36;;;;;;;7.50;4.92;;;;;;;32.12;60.64;100517.66;1746351;81;21447;-55
2021/08/01 06:44:04;;;;;;;6.40;4.90;;;;;;;32.12;60.25;100517.66;1734843;81;21438;-53
2021/08/01 06:46:31;;;;;;;8.05;4.42;;;;;;;32.13;59.61;100515.20;1723239;81;21519;-53
2021/08/01 06:48:58;;;;;;;10.70;4.55;;;;;;;32.12;59.78;100515.75;1722957;81;21080;-53
2021/08/01 06:51:25;;;;;;;7.50;4.97;;;;;;;32.14;60.22;100515.53;1724382;81;21084;-53
2021/08/01 06:53:54;;;;;;;6.97;4.80;;;;;;;32.18;60.34;100515.48;1723791;81;22443;-53
2021/08/01 06:56:20;;;;;;;6.35;4.85;;;;;;;32.22;60.15;100505.69;1724705;81;21064;-54
2021/08/01 07:02:19;;;;;;;7.60;4.72;;;;;;;32.23;59.90;100508.78;1714759;80;69698;-82
2021/08/01 07:04:49;;;;;;;6.83;4.67;;;;;;;32.08;60.17;100504.75;1715218;82;21159;-82
2021/08/01 07:07:16;;;;;;;8.38;4.78;;;;;;;31.99;60.92;100501.27;1721955;82;21017;-84
2021/08/01 07:09:43;;;;;;;7.05;5.10;;;;;;;31.97;61.18;100508.93;1678310;84;21520;-83
2021/08/01 07:12:10;;;;;;;5.67;4.80;;;;;;;31.96;61.58;100508.61;1681174;84;21124;-83
2021/08/01 07:14:38;;;;;;;11.03;5.30;;;;;;;31.95;62.08;100516.59;1663118;85;21481;-83
2021/08/01 07:17:06;;;;;;;6.55;4.45;;;;;;;31.98;62.17;100520.34;1683537;84;21924;-83
2021/08/01 07:19:34;;;;;;;5.08;4.53;;;;;;;31.94;62.04;100521.78;1687715;83;21100;-82
2021/08/01 07:22:01;;;;;;;7.17;4.80;;;;;;;31.80;62.15;100524.13;1695197;83;21581;-83
2021/08/01 07:24:28;;;;;;;6.47;4.87;;;;;;;31.69;62.48;100522.19;1715299;81;21121;-83
2021/08/01 07:26:56;;;;;;;7.00;4.78;;;;;;;31.64;62.71;100521.94;1717242;82;21132;-84
2021/08/01 07:29:24;;;;;;;5.47;4.65;;;;;;;31.64;62.83;100527.47;1726102;81;21142;-83
2021/08/01 07:31:51;;;;;;;7.47;4.50;;;;;;;31.70;62.74;100516.97;1721215;81;21030;-83
2021/08/01 07:34:18;;;;;;;5.50;4.70;;;;;;;31.75;62.68;100523.31;1720074;81;21064;-84
2021/08/01 07:36:47;;;;;;;6.17;4.78;;;;;;;31.77;62.95;100520.38;1709625;82;21620;-83
2021/08/01 07:39:14;;;;;;;7.12;4.58;;;;;;;31.71;62.77;100527.00;1710883;82;21493;-82
2021/08/01 07:41:41;;;;;;;6.55;4.92;;;;;;;31.59;63.43;100523.06;1723017;81;21782;-83
2021/08/01 07:44:08;;;;;;;9.53;4.58;;;;;;;31.61;63.77;100516.80;1720193;81;21521;-83
2021/08/01 07:46:35;;;;;;;6.37;4.25;;;;;;;31.65;63.58;100524.19;1712365;81;21040;-84
2021/08/01 07:49:05;;;;;;;7.90;4.53;;;;;;;31.70;63.59;100523.89;1711685;81;21078;-82
2021/08/01 07:51:31;;;;;;;6.42;5.03;;;;;;;31.77;63.66;100537.01;1714825;82;21099;-83
2021/08/01 07:53:59;;;;;;;8.98;4.50;;;;;;;31.80;63.55;100529.67;1709877;81;21297;-83
2021/08/01 07:56:26;;;;;;;12.75;4.97;;;;;;;31.82;63.35;100528.95;1681917;84;21110;-83
2021/08/01 07:58:53;;;;;;;8.95;4.90;;;;;;;31.84;63.44;100526.31;1678480;84;21042;-83
2021/08/01 08:01:22;;;;;;;7.35;4.55;;;;;;;31.94;63.26;100522.33;1650923;84;21001;-83
2021/08/01 08:06:24;;;;;;;10.35;4.80;;;;;;;32.10;62.80;100522.55;1685839;83;21166;-83
2021/08/01 08:08:51;;;;;;;6.03;4.50;;;;;;;32.13;62.47;100517.98;1685611;83;21060;-82
2021/08/01 08:11:18;;;;;;;10.90;4.45;;;;;;;32.13;62.19;100517.98;1688861;83;21078;-84
2021/08/01 08:13:45;;;;;;;9.08;4.72;;;;;;;32.12;62.17;100514.88;1691629;83;21025;-83
2021/08/01 08:16:14;;;;;;;7.85;4.90;;;;;;;32.10;61.84;100510.94;1685542;83;21096;-83
2021/08/01 08:18:41;;;;;;;9.98;4.85;;;;;;;32.04;61.76;100517.82;1691315;83;21836;-82
2021/08/01 08:21:08;;;;;;;7.10;4.70;;;;;;;31.95;61.65;100508.28;1691615;83;21049;-84
2021/08/01 08:23:35;;;;;;;9.65;4.75;;;;;;;31.88;61.94;100512.05;1694762;83;21080;-83
2021/08/01 08:26:04;;;;;;;8.23;4.30;;;;;;;31.83;61.81;100514.91;1688585;83;21686;-83
2021/08/01 08:28:31;;;;;;;4.92;4.33;;;;;;;31.84;62.31;100520.77;1671453;84;21111;-84
2021/08/01 08:31:01;;;;;;;8.60;4.97;;;;;;;31.84;62.44;100513.84;1686218;83;21907;-84
2021/08/01 08:33:28;;;;;;;6.28;4.45;;;;;;;31.84;62.55;100525.45;1690277;83;21051;-83
2021/08/01 08:35:56;;;;;;;5.40;4.35;;;;;;;31.84;62.58;100514.36;1653067;85;21577;-83
2021/08/01 08:38:23;;;;;;;8.68;4.50;;;;;;;31.80;62.30;100517.20;1669678;84;20982;-84
2021/08/01 08:40:50;;;;;;;7.58;4.85;;;;;;;31.71;62.49;100519.23;1693254;83;21415;-83
2021/08/01 08:43:17;;;;;;;9.08;4.67;;;;;;;31.63;62.91;100510.52;1702684;83;21603;-83
2021/08/01 08:45:47;;;;;;;6.70;5.30;;;;;;;31.64;63.22;100507.23;1717346;81;21045;-83
2021/08/01 08:48:15;;;;;;;7.20;4.75;;;;;;;31.68;63.27;100509.94;1723695;81;21092;-82
2021/08/01 08:50:43;;;;;;;8.70;4.80;;;;;;;31.69;62.74;100505.56;1715866;82;21111;-84
2021/08/01 08:53:10;;;;;;;8.28;4.42;;;;;;;31.66;62.81;100510.12;1705940;82;21135;-83
2021/08/01 08:55:37;;;;;;;10.45;4.30;;;;;;;31.64;63.14;100503.08;1636215;84;21117;-84
2021/08/01 08:58:04;;;;;;;10.60;4.85;;;;;;;31.65;63.29;100508.41;1678009;83;21128;-84
2021/08/01 09:00:34;;;;;;;10.80;4.58;;;;;;;31.69;63.34;100511.10;1658586;84;21175;-83
2021/08/01 09:03:00;;;;;;;8.55;4.90;;;;;;;31.75;63.39;100515.54;1640363;85;21112;-83
2021/08/01 09:05:27;;;;;;;7.22;4.35;;;;;;;31.77;63.20;100517.61;1670329;83;21101;-83
2021/08/01 09:07:55;;;;;;;8.48;4.30;;;;;;;31.75;63.26;100512.77;1686400;83;21750;-82
2021/08/01 09:10:22;;;;;;;9.23;4.45;;;;;;;31.75;62.96;100521.92;1675258;83;21051;-84
2021/08/01 09:12:55;;;;;;;5.55;4.60;;;;;;;31.77;63.33;100525.92;1653706;85;21505;-83
2021/08/01 09:15:25;;;;;;;8.40;4.58;;;;;;;31.79;63.07;100521.03;1652445;85;21443;-84
2021/08/01 09:17:55;;;;;;;8.78;5.05;;;;;;;31.79;62.64;100516.88;1653302;85;21067;-84
2021/08/01 09:20:27;;;;;;;5.35;4.33;;;;;;;31.79;62.78;100516.34;1701429;82;21144;-83
2021/08/01 09:23:08;;;;;;;7.87;4.70;;;;;;;31.82;62.64;100515.93;1709112;82;21537;-82
2021/08/01 09:25:38;;;;;;;6.85;5.03;;;;;;;31.86;62.57;100511.72;1703919;82;21101;-83
2021/08/01 09:28:12;;;;;;;5.30;4.42;;;;;;;31.85;62.42;100511.91;1712468;81;21485;-83
2021/08/01 09:30:55;;;;;;;5.90;4.22;;;;;;;31.81;62.82;100514.77;1712495;82;21791;-83
2021/08/01 09:33:44;;;;;;;11.83;5.00;;;;;;;31.80;63.28;100513.05;1687774;82;21114;-84
2021/08/01 09:36:17;;;;;;;5.50;4.45;;;;;;;31.80;62.26;100513.89;1703036;82;21092;-83
2021/08/01 09:38:54;;;;;;;13.32;5.37;;;;;;;31.80;62.52;100510.28;1706544;82;21112;-83
2021/08/01 09:41:35;;;;;;;6.35;4.75;;;;;;;31.80;62.61;100513.05;1710546;82;21096;-84
2021/08/01 09:44:05;;;;;;;6.87;4.55;;;;;;;31.82;62.69;100506.23;1712103;82;21088;-83
2021/08/01 09:46:45;;;;;;;7.37;4.55;;;;;;;31.78;61.96;100504.08;1701322;82;21138;-83
2021/08/01 09:49:21;;;;;;;9.73;4.58;;;;;;;31.69;61.50;100505.56;1710369;81;20902;-82
2021/08/01 09:51:53;;;;;;;6.92;4.47;;;;;;;31.58;61.80;100510.27;1697425;82;21000;-84
2021/08/01 09:54:28;;;;;;;6.37;4.42;;;;;;;31.51;62.10;100506.05;1702163;82;21010;-83
2021/08/01 09:57:00;;;;;;;8.53;4.47;;;;;;;31.50;62.83;100509.00;1692491;81;20879;-83
2021/08/01 09:59:31;;;;;;;8.95;4.33;;;;;;;31.50;62.35;100515.41;1707091;79;21057;-83
2021/08/01 10:02:02;;;;;;;7.17;4.28;;;;;;;31.52;60.49;100512.45;1719189;79;21103;-84
2021/08/01 10:04:34;;;;;;;5.55;4.00;;;;;;;31.52;59.18;100520.77;1720168;81;21085;-83
2021/08/01 10:07:16;;;;;;;5.12;4.25;;;;;;;31.47;59.48;100512.17;1692338;83;20964;-84
2021/08/01 10:09:47;;;;;;;5.42;4.37;;;;;;;31.42;59.12;100508.09;1691072;84;20997;-83
2021/08/01 10:12:16;;;;;;;4.20;3.52;;;;;;;31.40;59.29;100511.59;1686430;83;21164;-83
2021/08/01 10:14:43;;;;;;;6.87;4.33;;;;;;;31.37;58.31;100511.98;1699770;82;20996;-81
2021/08/01 10:17:12;;;;;;;6.28;4.55;;;;;;;31.38;59.69;100509.55;1694300;83;21009;-83
2021/08/01 10:19:39;;;;;;;8.63;3.95;;;;;;;31.38;60.29;100509.55;1690237;83;21160;-84
2021/08/01 10:22:06;;;;;;;6.62;4.60;;;;;;;31.38;60.38;100510.93;1673373;83;21046;-83
2021/08/01 10:24:41;;;;;;;7.95;4.65;;;;;;;31.39;62.08;100504.34;1698041;82;21173;-83
2021/08/01 10:27:29;;;;;;;7.53;4.75;;;;;;;31.42;63.16;100501.16;1664432;84;21569;-83
2021/08/01 10:29:56;;;;;;;6.37;4.70;;;;;;;31.43;63.86;100504.27;1688910;83;21533;-84
2021/08/01 10:32:25;;;;;;;5.87;4.53;;;;;;;31.41;62.86;100504.15;1696091;83;20946;-84
2021/08/01 10:35:14;;;;;;;6.62;4.25;;;;;;;31.36;64.42;100498.33;1684839;84;21005;-82
2021/08/01 10:37:54;;;;;;;12.13;4.42;;;;;;;31.29;64.07;100502.44;1691211;83;20941;-83
2021/08/01 10:40:26;;;;;;;6.12;4.50;;;;;;;31.18;64.40;100502.91;1678968;84;21004;-82
2021/08/01 10:43:07;;;;;;;5.03;4.53;;;;;;;31.10;66.02;100507.52;1694512;83;20914;-82
2021/08/01 10:45:36;;;;;;;5.65;4.22;;;;;;;31.03;66.79;100506.56;1692632;83;21051;-82
2021/08/01 10:48:04;;;;;;;8.23;4.62;;;;;;;30.97;67.06;100497.67;1699923;82;20965;-80
2021/08/01 10:50:31;;;;;;;8.03;5.28;;;;;;;30.90;66.75;100498.13;1701818;83;21128;-81
2021/08/01 10:53:24;;;;;;;7.40;4.42;;;;;;;30.85;67.70;100501.47;1682160;83;20894;-82
2021/08/01 10:56:26;;;;;;;10.03;4.40;;;;;;;30.80;68.10;100492.35;1697846;83;20950;-81
2021/08/01 10:58:53;;;;;;;8.48;4.37;;;;;;;30.75;67.98;100510.61;1690942;83;21059;-81
2021/08/01 11:01:22;;;;;;;6.70;4.65;;;;;;;30.70;67.39;100508.41;1702966;83;20995;-83
2021/08/01 11:03:51;;;;;;;7.40;4.90;;;;;;;30.66;68.12;100512.63;1687576;83;21814;-81
2021/08/01 11:06:42;;;;;;;8.93;4.50;;;;;;;30.68;68.11;100509.14;1647581;85;21075;-81
2021/08/01 11:09:12;;;;;;;6.65;4.25;;;;;;;30.68;66.86;100503.61;1690432;83;20909;-82
2021/08/01 11:11:48;;;;;;;8.58;4.47;;;;;;;30.66;67.60;100503.78;1683899;83;21059;-82
2021/08/01 11:14:47;;;;;;;5.58;4.20;;;;;;;30.61;68.09;100495.69;1690264;83;20965;-82
2021/08/01 11:17:14;;;;;;;10.10;4.45;;;;;;;30.53;67.69;100497.52;1687062;83;21130;-82
2021/08/01 11:19:41;;;;;;;8.50;4.28;;;;;;;30.41;69.27;100501.84;1682649;84;21017;-83
2021/08/01 11:22:28;;;;;;;6.62;4.95;;;;;;;30.36;69.25;100500.14;1682689;84;21135;-83
2021/08/01 11:25:27;;;;;;;6.78;4.58;;;;;;;30.32;68.74;100507.98;1673246;84;21066;-84
2021/08/01 11:28:28;;;;;;;14.70;4.70;;;;;;;30.29;68.90;100504.22;1712585;81;21482;-84
2021/08/01 11:31:01;;;;;;;11.33;4.50;;;;;;;30.27;70.48;100490.57;1717498;81;21618;-83
2021/08/01 11:33:44;;;;;;;8.85;4.80;;;;;;;30.23;70.09;100493.39;1689284;83;21056;-83
2021/08/01 11:36:30;;;;;;;8.63;4.75;;;;;;;30.24;71.64;100485.42;1690003;83;21007;-84
2021/08/01 11:39:01;;;;;;;7.22;4.50;;;;;;;30.24;72.16;100472.98;1682604;84;20894;-84
2021/08/01 11:44:21;;;;;;;6.33;4.20;;;;;;;30.19;72.70;100458.89;1690815;83;24808;-84
2021/08/01 11:47:04;;;;;;;7.50;4.60;;;;;;;30.18;72.57;100458.55;1683734;84;21115;-82
2021/08/01 11:49:49;;;;;;;8.60;4.62;;;;;;;30.14;72.98;100451.66;1687899;84;21013;-85
2021/08/01 11:52:42;;;;;;;8.98;4.80;;;;;;;30.11;72.74;100448.78;1684890;83;21167;-83